Time;durP1;ratioP1;P1;durP2;ratioP2;P2;SDS_P1;SDS_P2;PMS_P1;PMS_P2;Temp;Humidity;BMP_temperature;BMP_pressure;BME280_temperature;BME280_humidity;BME280_pressure;Samples;Min_cycle;Max_cycle;Signal;HPM_P1;HPM_P2
2023/01/07 00:02:10;;;;;;;1.67;1.50;;;;;;;6.04;100.00;99939.50;6201512;23;20185;-83
2023/01/07 00:05:14;;;;;;;2.47;1.80;;;;;;;6.16;100.00;99940.69;6206079;23;20228;-82
2023/01/07 00:07:46;;;;;;;1.70;1.50;;;;;;;6.22;100.00;99936.47;6234727;23;20219;-82
2023/01/07 00:10:18;;;;;;;2.03;1.90;;;;;;;6.34;100.00;99937.66;6200752;23;20200;-82
2023/01/07 00:24:31;;;;;;;2.20;1.87;;;;;;;6.46;100.00;99942.31;6259645;22;20235;-81
2023/01/07 00:26:57;;;;;;;2.20;1.90;;;;;;;6.59;100.00;99953.13;6282360;22;20203;-81
2023/01/07 00:29:24;;;;;;;2.00;1.80;;;;;;;6.58;100.00;99950.66;6255981;22;20242;-81
2023/01/07 00:31:52;;;;;;;3.53;2.00;;;;;;;6.55;100.00;99941.22;6127031;22;20230;-81
2023/01/07 00:34:22;;;;;;;3.40;2.10;;;;;;;6.63;100.00;99948.25;6254986;22;20211;-81
2023/01/07 00:36:49;;;;;;;1.77;1.67;;;;;;;6.83;100.00;99952.00;6282521;22;20211;-81
2023/01/07 00:39:18;;;;;;;1.70;1.50;;;;;;;6.73;100.00;99947.97;6282674;22;20200;-81
2023/01/07 00:44:31;;;;;;;2.10;1.67;;;;;;;6.86;100.00;99956.13;6281714;22;20206;-81
2023/01/07 00:46:58;;;;;;;1.70;1.60;;;;;;;6.90;100.00;99960.91;6227333;23;20236;-81
2023/01/07 00:49:25;;;;;;;1.73;1.63;;;;;;;6.91;100.00;99964.34;6243232;22;20191;-81
2023/01/07 00:51:52;;;;;;;1.70;1.60;;;;;;;6.87;100.00;99958.59;6230009;22;20205;-81
2023/01/07 00:54:19;;;;;;;1.93;1.80;;;;;;;6.92;100.00;99960.69;6255944;22;20212;-80
2023/01/07 00:56:45;;;;;;;2.57;2.07;;;;;;;6.95;100.00;99960.31;6255587;22;20207;-81
2023/01/07 00:59:12;;;;;;;2.20;2.00;;;;;;;6.99;100.00;99958.94;6255646;22;20228;-81
2023/01/07 01:01:40;;;;;;;3.67;2.13;;;;;;;6.92;100.00;99953.53;6256196;22;20204;-82
2023/01/07 01:04:07;;;;;;;1.90;1.80;;;;;;;6.95;100.00;99957.66;6255329;22;20261;-81
2023/01/07 01:06:33;;;;;;;3.00;2.00;;;;;;;7.03;100.00;99957.53;6283305;22;20208;-81
2023/01/07 01:09:00;;;;;;;1.57;1.47;;;;;;;7.09;100.00;99962.91;6281703;22;20629;-80
2023/01/07 01:11:27;;;;;;;1.83;1.63;;;;;;;7.12;100.00;99963.56;6254095;22;20286;-81
2023/01/07 01:13:53;;;;;;;1.87;1.70;;;;;;;7.22;100.00;99961.44;6254121;22;20207;-81
2023/01/07 01:16:20;;;;;;;1.40;1.30;;;;;;;7.32;100.00;99962.78;6253437;22;20206;-81
2023/01/07 01:18:47;;;;;;;2.13;1.43;;;;;;;7.30;100.00;99966.63;6270944;22;20722;-81
2023/01/07 01:21:15;;;;;;;1.50;1.40;;;;;;;7.39;100.00;99960.97;6239113;22;20214;-82
2023/01/07 01:23:42;;;;;;;1.10;1.10;;;;;;;7.51;100.00;99970.09;6238691;22;20207;-82
2023/01/07 01:26:14;;;;;;;1.70;1.10;;;;;;;7.65;100.00;99970.25;6288566;22;20208;-82
2023/01/07 01:28:42;;;;;;;1.40;1.30;;;;;;;7.69;100.00;99969.66;6239992;22;20208;-81
2023/01/07 01:31:10;;;;;;;1.50;1.40;;;;;;;7.91;100.00;99960.59;6214353;22;20188;-82
2023/01/07 01:33:47;;;;;;;1.70;1.60;;;;;;;7.80;100.00;99955.78;6264551;22;20204;-82
2023/01/07 01:36:15;;;;;;;1.57;1.47;;;;;;;7.98;100.00;99969.44;6248258;22;20214;-83
2023/01/07 01:38:42;;;;;;;1.60;1.50;;;;;;;7.84;100.00;99959.69;6234473;22;20213;-81
2023/01/07 01:41:41;;;;;;;2.07;1.57;;;;;;;7.88;100.00;99950.31;6245079;22;20204;-85
2023/01/07 01:45:29;;;;;;;1.50;1.40;;;;;;;8.07;100.00;99946.09;6257792;22;20234;-83
2023/01/07 01:48:53;;;;;;;1.30;1.20;;;;;;;8.27;100.00;99948.91;6299764;22;20164;-83
2023/01/07 01:52:19;;;;;;;1.30;1.20;;;;;;;8.27;100.00;99949.72;6267245;22;20187;-81
2023/01/07 01:54:53;;;;;;;1.73;1.27;;;;;;;8.26;100.00;99944.56;6261569;22;20546;-81
2023/01/07 01:57:20;;;;;;;1.27;1.17;;;;;;;8.30;100.00;99949.38;6270269;22;20234;-81
2023/01/07 01:59:52;;;;;;;1.40;1.10;;;;;;;8.32;100.00;99954.50;6167954;22;20672;-82
2023/01/07 02:02:28;;;;;;;1.20;1.10;;;;;;;8.40;100.00;99951.66;6215905;22;20278;-81
2023/01/07 04:49:13;;;;;;;2.50;2.30;;;;;;;5.95;100.00;99877.59;6237967;22;20212;-80
2023/01/07 04:51:41;;;;;;;2.53;2.33;;;;;;;5.88;100.00;99881.97;6196471;23;20533;-80
2023/01/07 04:54:08;;;;;;;2.67;2.40;;;;;;;5.85;100.00;99892.13;6220270;23;20212;-80
2023/01/07 04:56:35;;;;;;;2.33;2.03;;;;;;;5.81;100.00;99881.03;6221556;23;20196;-80
2023/01/07 04:59:01;;;;;;;2.57;2.37;;;;;;;5.83;100.00;99880.88;6221400;23;20204;-80
2023/01/07 05:01:31;;;;;;;3.10;2.80;;;;;;;5.71;100.00;99876.00;6220133;23;20665;-81
2023/01/07 05:03:58;;;;;;;4.07;2.60;;;;;;;5.57;100.00;99875.97;6221099;23;20212;-81
2023/01/07 05:06:26;;;;;;;3.13;2.83;;;;;;;5.36;100.00;99868.72;6220883;23;20649;-80
2023/01/07 05:08:53;;;;;;;3.70;2.60;;;;;;;5.30;100.00;99870.25;6219954;23;20212;-80
2023/01/07 05:11:20;;;;;;;3.13;2.67;;;;;;;5.22;100.00;99874.81;6194534;23;20235;-81
2023/01/07 05:13:51;;;;;;;2.80;2.57;;;;;;;5.06;100.00;99874.94;6195302;23;20236;-80
2023/01/07 05:16:18;;;;;;;3.00;2.80;;;;;;;4.90;100.00;99869.75;6091849;23;20212;-81
2023/01/07 05:18:45;;;;;;;3.63;2.90;;;;;;;4.82;100.00;99865.31;6094442;23;20543;-81
2023/01/07 05:21:11;;;;;;;3.50;3.20;;;;;;;4.75;100.00;99875.00;6093770;23;20672;-80
2023/01/07 05:23:38;;;;;;;8.20;6.20;;;;;;;4.56;100.00;99873.63;6193725;23;20253;-80
2023/01/07 05:26:05;;;;;;;10.00;7.40;;;;;;;4.44;100.00;99873.19;6093502;23;20528;-80
2023/01/07 05:28:32;;;;;;;4.77;3.87;;;;;;;4.33;100.00;99870.94;6094154;23;20262;-80
2023/01/07 05:31:00;;;;;;;3.43;2.77;;;;;;;4.24;100.00;99874.63;6092798;23;20228;-80
2023/01/07 05:33:28;;;;;;;2.80;2.50;;;;;;;4.14;100.00;99871.38;6091797;23;20215;-80
2023/01/07 05:35:55;;;;;;;2.40;2.20;;;;;;;4.13;100.00;99868.88;6093615;23;20743;-80
2023/01/07 05:38:21;;;;;;;2.40;2.20;;;;;;;4.02;100.00;99869.25;6093055;23;20204;-80
2023/01/07 05:40:49;;;;;;;2.20;2.00;;;;;;;4.01;100.00;99868.44;6091861;23;20208;-80
2023/01/07 05:43:20;;;;;;;2.83;1.80;;;;;;;3.92;100.00;99859.66;6067581;23;20204;-80
2023/01/07 05:45:47;;;;;;;2.27;2.07;;;;;;;3.84;100.00;99866.81;6084639;23;20218;-80
2023/01/07 05:48:14;;;;;;;2.43;2.20;;;;;;;3.71;100.00;99864.72;6093809;23;20181;-79
2023/01/07 05:50:41;;;;;;;2.40;1.93;;;;;;;3.68;100.00;99875.66;6169308;23;20588;-79
2023/01/07 05:53:07;;;;;;;2.23;1.90;;;;;;;3.62;100.00;99878.16;6093278;23;20282;-81
2023/01/07 05:55:36;;;;;;;2.23;2.03;;;;;;;3.58;100.00;99879.50;6093396;23;20212;-80
2023/01/07 05:58:03;;;;;;;2.70;1.70;;;;;;;3.53;100.00;99864.09;6091263;23;20433;-79
2023/01/07 06:00:29;;;;;;;2.50;1.80;;;;;;;3.56;100.00;99874.34;6091655;23;20211;-80
2023/01/07 06:02:56;;;;;;;2.10;1.90;;;;;;;3.55;100.00;99876.16;6093183;23;20278;-79
2023/01/07 06:05:23;;;;;;;2.40;1.83;;;;;;;3.55;100.00;99868.22;6092147;23;20208;-80
2023/01/07 06:07:49;;;;;;;2.00;1.80;;;;;;;3.45;100.00;99864.91;6094048;23;20204;-81
2023/01/07 06:10:16;;;;;;;2.20;2.00;;;;;;;3.40;100.00;99858.50;6093113;23;20208;-80
2023/01/07 06:12:42;;;;;;;2.30;1.83;;;;;;;3.38;100.00;99863.13;6093375;23;20657;-80
2023/01/07 06:15:09;;;;;;;1.83;1.60;;;;;;;3.40;100.00;99863.78;6092951;23;20208;-80
2023/01/07 06:17:36;;;;;;;2.07;1.80;;;;;;;3.37;100.00;99869.41;6092793;23;20676;-80
2023/01/07 06:20:04;;;;;;;2.23;2.03;;;;;;;3.45;100.00;99870.22;6092258;23;20215;-80
2023/01/07 06:22:31;;;;;;;3.50;2.53;;;;;;;3.33;100.00;99863.63;6091533;23;20286;-80
2023/01/07 06:24:57;;;;;;;3.33;2.30;;;;;;;3.28;100.00;99871.25;6092991;23;20211;-80
2023/01/07 06:27:24;;;;;;;2.60;2.40;;;;;;;3.22;100.00;99871.09;6093220;23;20207;-80
2023/01/07 06:29:50;;;;;;;2.90;2.60;;;;;;;3.23;100.00;99862.97;6090871;23;20519;-80
2023/01/07 06:32:17;;;;;;;2.43;2.23;;;;;;;3.23;100.00;99867.44;6092495;23;20204;-80
2023/01/07 06:34:43;;;;;;;2.87;2.30;;;;;;;3.21;100.00;99878.22;6092990;23;20675;-80
2023/01/07 06:37:10;;;;;;;2.03;1.93;;;;;;;3.20;100.00;99879.19;6093248;23;20802;-80
2023/01/07 06:39:37;;;;;;;2.23;2.03;;;;;;;3.17;100.00;99879.53;6244789;23;20207;-80
2023/01/07 06:42:03;;;;;;;2.07;1.93;;;;;;;3.15;100.00;99872.75;6243131;23;20684;-81
2023/01/07 06:44:30;;;;;;;3.07;2.30;;;;;;;3.12;100.00;99876.56;6245287;23;20644;-79
2023/01/07 06:46:56;;;;;;;2.30;2.10;;;;;;;3.11;100.00;99882.84;6245475;23;20223;-80
2023/01/07 06:49:23;;;;;;;2.90;2.03;;;;;;;3.04;100.00;99890.59;6243642;23;20215;-80
2023/01/07 06:51:50;;;;;;;2.50;2.30;;;;;;;2.98;100.00;99880.69;6245197;23;20205;-80
2023/01/07 06:54:16;;;;;;;2.77;1.97;;;;;;;3.03;100.00;99888.16;6245215;23;20205;-80
2023/01/07 06:56:43;;;;;;;2.20;2.00;;;;;;;3.03;100.00;99890.78;6245317;23;20201;-80
2023/01/07 06:59:09;;;;;;;1.80;1.70;;;;;;;3.02;100.00;99886.50;6245206;23;20208;-80
2023/01/07 07:01:36;;;;;;;2.43;2.23;;;;;;;3.07;100.00;99890.31;6092100;23;20208;-80
2023/01/07 07:04:03;;;;;;;2.50;2.30;;;;;;;3.08;100.00;99881.34;6091157;23;20219;-79
2023/01/07 07:06:29;;;;;;;2.17;1.97;;;;;;;3.18;100.00;99893.59;6091784;23;20561;-80
2023/01/07 07:08:56;;;;;;;2.00;1.90;;;;;;;3.22;100.00;99894.94;6091582;23;20700;-80
2023/01/07 07:11:22;;;;;;;2.30;2.10;;;;;;;3.22;100.00;99887.78;6092605;23;20223;-80
2023/01/07 07:13:49;;;;;;;2.77;2.50;;;;;;;3.24;100.00;99887.63;6093126;23;20235;-80
2023/01/07 07:16:16;;;;;;;3.80;3.50;;;;;;;3.29;100.00;99890.63;6092420;23;20204;-80
2023/01/07 07:18:42;;;;;;;3.20;2.90;;;;;;;3.28;100.00;99887.13;6092940;23;20208;-79
2023/01/07 07:21:09;;;;;;;3.43;2.80;;;;;;;3.29;100.00;99887.97;6090012;23;20675;-80
2023/01/07 07:23:36;;;;;;;2.50;2.30;;;;;;;3.36;100.00;99888.97;6078302;23;20275;-80
2023/01/07 07:26:02;;;;;;;2.40;2.20;;;;;;;3.40;100.00;99891.13;6092514;23;20214;-79
2023/01/07 07:28:29;;;;;;;2.20;2.00;;;;;;;3.47;100.00;99891.25;6093031;23;20208;-79
2023/01/07 07:30:56;;;;;;;2.10;1.90;;;;;;;3.54;100.00;99886.94;6091463;23;20212;-81
2023/01/07 07:33:22;;;;;;;1.97;1.73;;;;;;;3.60;100.00;99883.59;6092778;23;20552;-81
2023/01/07 07:35:49;;;;;;;2.33;1.87;;;;;;;3.67;100.00;99881.97;6093434;23;20204;-80
2023/01/07 07:38:17;;;;;;;1.90;1.80;;;;;;;3.69;100.00;99881.75;6092903;23;20208;-80
2023/01/07 07:40:45;;;;;;;3.23;2.23;;;;;;;3.81;100.00;99889.22;6091684;23;20551;-79
2023/01/07 07:43:12;;;;;;;2.20;2.00;;;;;;;3.87;100.00;99874.44;6091733;23;20262;-80
2023/01/07 07:45:42;;;;;;;1.90;1.80;;;;;;;3.93;100.00;99871.09;6091090;23;20539;-80
2023/01/07 07:48:11;;;;;;;1.87;1.70;;;;;;;3.94;100.00;99873.59;6088648;23;20211;-79
2023/01/07 07:50:38;;;;;;;2.40;1.77;;;;;;;4.01;100.00;99879.03;6119472;23;20211;-79
2023/01/07 07:53:08;;;;;;;2.20;1.60;;;;;;;4.05;100.00;99867.09;6122456;23;20212;-80
2023/01/07 07:55:37;;;;;;;2.00;1.73;;;;;;;4.13;100.00;99866.22;6096932;23;20248;-81
2023/01/07 07:58:04;;;;;;;1.90;1.80;;;;;;;4.16;100.00;99877.31;6096086;23;20594;-79
2023/01/07 08:00:31;;;;;;;1.97;1.87;;;;;;;4.19;100.00;99868.19;6121889;23;20207;-80
2023/01/07 08:02:58;;;;;;;2.20;2.00;;;;;;;4.27;100.00;99874.28;6122952;23;20193;-80
2023/01/07 08:05:25;;;;;;;2.10;1.87;;;;;;;4.33;100.00;99868.28;6096747;23;20207;-80
2023/01/07 08:07:52;;;;;;;2.30;2.10;;;;;;;4.41;100.00;99873.53;6122367;23;20699;-79
2023/01/07 08:10:19;;;;;;;2.63;2.23;;;;;;;4.47;100.00;99871.19;6121713;23;20211;-79
2023/01/07 08:12:46;;;;;;;3.23;2.60;;;;;;;4.63;100.00;99871.09;6096524;23;20282;-80
2023/01/07 08:15:13;;;;;;;3.07;2.77;;;;;;;4.64;100.00;99857.66;6221413;23;20219;-80
2023/01/07 08:17:39;;;;;;;4.87;4.37;;;;;;;4.74;100.00;99865.38;6122218;23;20214;-80
2023/01/07 08:20:07;;;;;;;4.03;3.27;;;;;;;4.79;100.00;99855.91;6120162;23;20212;-81
2023/01/07 08:22:34;;;;;;;3.77;3.33;;;;;;;4.93;100.00;99867.56;6135570;23;20218;-80
2023/01/07 08:25:00;;;;;;;4.27;2.97;;;;;;;5.05;100.00;99854.69;6124543;23;20213;-80
2023/01/07 08:27:27;;;;;;;3.30;3.00;;;;;;;5.10;100.00;99857.63;6223986;23;20594;-80
2023/01/07 08:29:54;;;;;;;2.80;2.33;;;;;;;5.21;100.00;99851.91;6123498;23;20195;-80
2023/01/07 08:32:21;;;;;;;4.60;4.10;;;;;;;5.24;100.00;99860.34;6123264;23;20278;-80
2023/01/07 08:34:48;;;;;;;2.80;2.60;;;;;;;5.35;100.00;99847.63;6122756;23;20323;-80
2023/01/07 08:37:14;;;;;;;2.47;2.20;;;;;;;5.36;100.00;99843.97;6225450;23;20571;-81
2023/01/07 08:39:41;;;;;;;1.90;1.70;;;;;;;5.46;100.00;99852.50;6123106;23;20214;-79
2023/01/07 08:42:08;;;;;;;2.10;1.70;;;;;;;5.49;100.00;99849.47;6121185;23;20583;-80
2023/01/07 08:44:34;;;;;;;2.20;2.00;;;;;;;5.56;100.00;99842.41;6123571;23;20207;-80
2023/01/07 08:47:01;;;;;;;2.10;1.90;;;;;;;5.72;100.00;99842.25;6123612;23;20217;-81
2023/01/07 08:49:28;;;;;;;2.33;1.80;;;;;;;5.93;100.00;99846.84;6123176;23;20212;-80
2023/01/07 08:51:54;;;;;;;2.10;1.90;;;;;;;6.08;100.00;99845.84;6124232;23;20524;-80
2023/01/07 08:54:21;;;;;;;2.20;2.00;;;;;;;6.24;100.00;99849.31;6123018;23;20553;-80
2023/01/07 08:56:47;;;;;;;2.30;2.10;;;;;;;6.30;100.00;99841.38;6123693;23;20241;-80
2023/01/07 08:59:14;;;;;;;2.70;2.37;;;;;;;6.42;100.00;99839.09;6123889;23;20212;-80
2023/01/07 09:01:41;;;;;;;3.13;2.23;;;;;;;6.54;100.00;99842.91;6123815;23;20218;-81
2023/01/07 09:04:08;;;;;;;2.10;2.00;;;;;;;6.55;100.00;99840.06;6123163;23;20652;-80
2023/01/07 09:06:34;;;;;;;2.23;2.03;;;;;;;6.63;100.00;99837.25;6124042;23;20554;-80
2023/01/07 09:09:01;;;;;;;2.30;2.10;;;;;;;6.78;100.00;99841.72;6124160;23;20259;-80
2023/01/07 09:11:27;;;;;;;3.27;2.30;;;;;;;6.84;100.00;99831.13;6123895;23;20209;-81
2023/01/07 09:13:54;;;;;;;2.20;2.00;;;;;;;6.78;100.00;99831.06;6123771;23;20207;-80
2023/01/07 09:16:20;;;;;;;2.57;2.37;;;;;;;6.80;100.00;99826.38;6123816;23;20228;-80
2023/01/07 09:18:47;;;;;;;2.80;2.60;;;;;;;6.92;100.00;99830.16;6131196;23;20209;-81
2023/01/07 09:21:14;;;;;;;2.93;2.50;;;;;;;7.09;100.00;99828.91;6232367;23;20199;-81
2023/01/07 09:23:40;;;;;;;2.73;2.50;;;;;;;7.35;100.00;99831.78;6104099;23;20210;-81
2023/01/07 09:26:10;;;;;;;2.60;2.30;;;;;;;7.64;100.00;99835.25;6129795;23;20211;-81
2023/01/07 09:28:37;;;;;;;3.07;2.50;;;;;;;7.91;100.00;99829.03;6205239;23;20238;-81
2023/01/07 09:31:04;;;;;;;2.50;2.30;;;;;;;8.24;100.00;99834.53;6104716;23;20234;-81
2023/01/07 09:33:31;;;;;;;2.70;2.20;;;;;;;8.52;100.00;99827.25;6132331;23;20267;-81
2023/01/07 09:35:58;;;;;;;3.40;3.10;;;;;;;8.71;100.00;99820.31;6133483;23;20231;-82
2023/01/07 09:38:25;;;;;;;2.90;2.70;;;;;;;8.86;100.00;99820.16;6133948;23;20204;-81
2023/01/07 09:40:52;;;;;;;3.20;2.60;;;;;;;9.02;100.00;99817.88;6135454;23;20211;-82
2023/01/07 09:43:25;;;;;;;3.03;2.33;;;;;;;9.22;100.00;99812.53;6062020;23;20699;-82
2023/01/07 09:46:11;;;;;;;2.70;2.50;;;;;;;9.44;100.00;99808.63;6104528;23;20227;-79
2023/01/07 09:48:41;;;;;;;2.60;2.40;;;;;;;9.60;100.00;99808.19;6112526;23;20223;-79
2023/01/07 09:51:18;;;;;;;3.23;2.93;;;;;;;9.83;100.00;99805.03;6219265;23;20211;-79
2023/01/07 09:53:47;;;;;;;3.07;2.77;;;;;;;10.06;100.00;99799.19;6247291;23;20251;-81
2023/01/07 09:56:21;;;;;;;3.63;2.93;;;;;;;10.32;100.00;99791.06;6224859;23;20235;-81
2023/01/07 09:58:48;;;;;;;3.63;3.33;;;;;;;10.53;100.00;99782.72;6250230;23;20205;-81
2023/01/07 10:01:42;;;;;;;4.43;4.03;;;;;;;10.68;100.00;99781.59;6224799;23;20261;-81
2023/01/07 10:04:38;;;;;;;4.10;3.70;;;;;;;10.92;100.00;99770.06;6202498;23;20205;-81
2023/01/07 10:07:12;;;;;;;3.83;3.20;;;;;;;11.22;100.00;99763.00;6222936;23;20212;-81
2023/01/07 10:09:38;;;;;;;3.30;2.97;;;;;;;11.34;100.00;99766.59;6246552;23;20212;-81
2023/01/07 10:12:15;;;;;;;3.20;2.87;;;;;;;11.55;100.00;99754.63;6245523;23;20206;-80
2023/01/07 10:14:57;;;;;;;2.80;2.60;;;;;;;11.58;100.00;99748.00;6219437;23;20568;-82
2023/01/07 10:17:45;;;;;;;3.10;2.80;;;;;;;11.60;100.00;99732.50;6244633;23;20212;-82
2023/01/07 10:20:34;;;;;;;3.23;2.93;;;;;;;11.56;100.00;99731.31;6245354;23;20282;-82
2023/01/07 10:23:09;;;;;;;2.93;2.63;;;;;;;11.55;100.00;99732.34;6243574;23;20216;-82
2023/01/07 10:25:47;;;;;;;3.10;2.87;;;;;;;11.72;100.00;99720.81;6218249;23;20285;-82
2023/01/07 10:28:21;;;;;;;3.30;3.00;;;;;;;12.00;100.00;99725.63;6217411;23;20212;-81
2023/01/07 10:30:51;;;;;;;3.43;3.13;;;;;;;12.15;100.00;99715.31;6243794;23;20608;-82
2023/01/07 10:33:28;;;;;;;3.73;3.43;;;;;;;12.32;100.00;99712.78;6217906;23;20283;-82
2023/01/07 10:36:18;;;;;;;3.73;3.43;;;;;;;12.33;100.00;99698.31;6216916;23;20233;-81
2023/01/07 10:38:53;;;;;;;3.87;3.50;;;;;;;12.27;100.00;99697.38;6244019;23;20255;-82
2023/01/07 10:41:26;;;;;;;4.63;3.60;;;;;;;12.15;100.00;99680.41;6217813;23;20212;-83
2023/01/07 10:43:58;;;;;;;5.27;4.63;;;;;;;12.05;100.00;99671.25;6218099;23;20585;-84
2023/01/07 10:46:47;;;;;;;5.80;5.30;;;;;;;12.05;100.00;99688.19;6182475;23;20248;-82
2023/01/07 10:49:16;;;;;;;5.00;4.50;;;;;;;12.01;100.00;99675.44;6245207;23;20259;-82
2023/01/07 10:52:01;;;;;;;7.10;5.97;;;;;;;11.99;100.00;99670.28;6218800;23;20201;-82
2023/01/07 10:55:10;;;;;;;6.33;5.33;;;;;;;12.01;100.00;99670.88;6245097;23;20279;-82
2023/01/07 10:57:37;;;;;;;6.67;5.97;;;;;;;12.03;100.00;99662.63;6245425;23;20238;-81
2023/01/07 11:00:08;;;;;;;5.70;5.20;;;;;;;12.01;100.00;99662.84;6216605;23;20273;-82
2023/01/07 11:02:36;;;;;;;6.03;5.27;;;;;;;12.03;100.00;99657.25;6218170;23;20731;-83
2023/01/07 11:05:03;;;;;;;7.87;6.03;;;;;;;12.01;100.00;99657.47;6243389;23;20235;-84
2023/01/07 11:07:39;;;;;;;5.90;5.30;;;;;;;12.06;100.00;99652.22;6232448;23;20215;-82
2023/01/07 11:10:37;;;;;;;6.43;5.70;;;;;;;12.08;100.00;99631.34;6244816;23;20212;-83
2023/01/07 11:13:15;;;;;;;6.67;5.73;;;;;;;12.15;100.00;99634.75;6239049;23;20205;-82
2023/01/07 11:15:52;;;;;;;8.40;6.50;;;;;;;12.11;100.00;99633.56;6218693;23;20212;-81
2023/01/07 11:18:35;;;;;;;7.27;6.03;;;;;;;12.16;100.00;99627.50;6199681;23;20689;-85
2023/01/07 11:21:02;;;;;;;6.20;5.60;;;;;;;12.15;100.00;99617.81;6200814;23;20699;-82
2023/01/07 11:23:31;;;;;;;9.30;7.20;;;;;;;12.25;100.00;99608.16;6245307;23;20209;-84
2023/01/07 11:26:22;;;;;;;6.90;6.20;;;;;;;12.32;100.00;99599.97;6219010;23;20248;-82
2023/01/07 11:28:58;;;;;;;6.43;5.83;;;;;;;12.35;100.00;99600.34;6218993;23;20531;-83
2023/01/07 11:31:48;;;;;;;7.30;5.63;;;;;;;12.34;100.00;99598.69;6219467;23;20208;-82
2023/01/07 11:34:33;;;;;;;6.33;5.73;;;;;;;12.27;100.00;99594.50;6219249;23;20205;-82
2023/01/07 11:37:00;;;;;;;6.23;5.13;;;;;;;12.38;100.00;99582.09;6219468;23;20280;-82
2023/01/07 11:39:30;;;;;;;5.37;4.87;;;;;;;12.33;100.00;99582.78;6219181;23;20220;-82
2023/01/07 11:42:37;;;;;;;6.43;5.37;;;;;;;12.38;100.00;99577.56;6245202;23;20209;-82
2023/01/07 11:45:10;;;;;;;8.47;6.10;;;;;;;12.39;100.00;99576.50;6217670;23;20277;-82
2023/01/07 11:47:38;;;;;;;5.90;5.30;;;;;;;12.44;100.00;99567.75;6218990;23;20212;-83
2023/01/07 11:50:08;;;;;;;15.57;13.87;;;;;;;12.46;100.00;99566.44;6244536;23;20276;-83
2023/01/07 11:52:35;;;;;;;9.23;7.90;;;;;;;12.59;100.00;99560.03;6219393;23;20200;-82
2023/01/07 11:55:01;;;;;;;5.73;5.23;;;;;;;12.60;100.00;99551.72;6245615;23;20207;-82
2023/01/07 11:57:28;;;;;;;6.13;5.53;;;;;;;12.52;100.00;99553.97;6219509;23;20205;-82
2023/01/07 12:00:16;;;;;;;5.80;4.50;;;;;;;12.57;100.00;99546.84;6219408;23;20211;-82
2023/01/07 12:02:42;;;;;;;5.17;4.57;;;;;;;12.58;100.00;99536.91;6218996;23;20263;-82
2023/01/07 12:05:25;;;;;;;5.53;4.90;;;;;;;12.63;100.00;99535.16;6192018;23;20208;-82
2023/01/07 12:07:53;;;;;;;5.27;4.77;;;;;;;12.68;100.00;99527.22;6245932;23;20208;-82
2023/01/07 12:10:27;;;;;;;6.33;4.10;;;;;;;12.63;100.00;99537.03;6218977;23;20197;-82
2023/01/07 12:12:54;;;;;;;5.57;4.97;;;;;;;12.64;100.00;99526.03;6218575;23;20206;-83
2023/01/07 12:15:25;;;;;;;5.53;5.03;;;;;;;12.78;100.00;99522.03;6244920;23;20232;-85
2023/01/07 12:18:32;;;;;;;4.67;4.20;;;;;;;12.82;100.00;99516.19;6244411;23;20300;-82
2023/01/07 12:21:25;;;;;;;4.87;4.37;;;;;;;12.81;100.00;99504.63;6242465;23;20705;-82
2023/01/07 12:24:17;;;;;;;4.37;3.97;;;;;;;12.78;100.00;99500.50;6218681;23;20281;-82
2023/01/07 12:27:01;;;;;;;5.13;4.43;;;;;;;12.79;100.00;99499.47;6245261;23;20200;-84
2023/01/07 12:29:37;;;;;;;4.47;3.67;;;;;;;12.77;100.00;99495.41;6245429;23;20216;-83
2023/01/07 12:32:30;;;;;;;5.27;4.20;;;;;;;12.70;100.00;99489.31;6245109;23;20208;-81
2023/01/07 12:35:05;;;;;;;4.20;3.20;;;;;;;12.66;100.00;99491.66;6246591;23;20274;-82
2023/01/07 12:37:45;;;;;;;4.30;3.90;;;;;;;12.54;100.00;99482.00;6221086;23;20526;-82
2023/01/07 12:40:11;;;;;;;3.50;3.20;;;;;;;12.66;100.00;99486.28;6244643;23;20721;-82
2023/01/07 12:42:42;;;;;;;4.30;3.90;;;;;;;12.66;100.00;99483.59;6245279;23;20692;-82
2023/01/07 12:45:20;;;;;;;3.80;2.83;;;;;;;12.67;100.00;99482.56;6218972;23;20241;-82
2023/01/07 12:47:51;;;;;;;3.50;3.20;;;;;;;12.65;100.00;99473.91;6193776;23;20692;-82
2023/01/07 12:50:37;;;;;;;33.37;26.87;;;;;;;12.67;100.00;99476.34;6192372;23;20208;-82
2023/01/07 12:53:04;;;;;;;80.30;50.33;;;;;;;12.68;100.00;99475.31;6244847;23;20255;-82
2023/01/07 12:55:34;;;;;;;8.60;7.80;;;;;;;12.60;100.00;99475.66;6245265;23;20740;-82
2023/01/07 12:58:18;;;;;;;6.00;5.37;;;;;;;12.55;100.00;99465.63;6218785;23;20281;-82
2023/01/07 13:00:56;;;;;;;4.40;4.00;;;;;;;12.51;100.00;99458.25;6218098;23;20547;-83
2023/01/07 13:03:51;;;;;;;11.03;10.23;;;;;;;12.55;100.00;99462.13;6244839;23;20209;-83
2023/01/07 13:06:28;;;;;;;3.63;3.33;;;;;;;12.60;100.00;99463.03;6217082;23;20666;-82
2023/01/07 13:09:31;;;;;;;2.83;2.60;;;;;;;12.70;100.00;99454.38;6218430;23;20727;-82
2023/01/07 13:15:25;;;;;;;4.83;4.50;;;;;;;12.58;100.00;99445.53;6243551;23;20213;-83
2023/01/07 13:17:54;;;;;;;3.37;3.07;;;;;;;12.48;100.00;99442.63;6219196;23;20236;-82
2023/01/07 13:20:50;;;;;;;3.60;2.70;;;;;;;12.43;100.00;99440.66;6216611;23;20669;-82
2023/01/07 13:23:24;;;;;;;3.13;2.60;;;;;;;12.42;100.00;99440.88;6228699;23;20209;-82
2023/01/07 13:26:17;;;;;;;2.80;2.50;;;;;;;12.35;100.00;99441.84;6220052;23;20208;-81
2023/01/07 13:28:53;;;;;;;4.23;2.70;;;;;;;12.18;100.00;99432.84;6247974;23;20251;-82
2023/01/07 13:31:41;;;;;;;3.27;2.80;;;;;;;12.03;100.00;99434.38;6247072;23;20215;-82
2023/01/07 13:34:24;;;;;;;2.67;2.47;;;;;;;11.93;100.00;99434.97;6250248;23;20553;-82
2023/01/07 13:37:32;;;;;;;4.27;2.47;;;;;;;11.81;100.00;99445.66;6221123;23;20259;-82
2023/01/07 13:40:13;;;;;;;2.70;2.50;;;;;;;11.71;100.00;99431.19;6193734;23;20204;-82
2023/01/07 13:42:52;;;;;;;3.37;2.30;;;;;;;11.80;100.00;99433.28;6246082;23;20228;-83
2023/01/07 13:45:26;;;;;;;2.60;2.40;;;;;;;11.79;100.00;99437.03;6197924;23;20204;-80
2023/01/07 13:47:56;;;;;;;2.60;2.30;;;;;;;11.65;100.00;99434.78;6219398;23;20205;-80
2023/01/07 13:50:43;;;;;;;2.20;2.00;;;;;;;11.67;100.00;99440.72;6216530;23;20205;-81
2023/01/07 13:53:13;;;;;;;2.60;2.30;;;;;;;11.57;100.00;99446.66;6245192;23;20209;-80
2023/01/07 13:55:41;;;;;;;2.57;2.30;;;;;;;11.50;100.00;99443.25;6245580;23;20208;-81
2023/01/07 13:58:30;;;;;;;2.30;2.10;;;;;;;11.40;100.00;99438.44;6218283;23;20228;-80
2023/01/07 14:01:13;;;;;;;4.33;4.00;;;;;;;11.23;100.00;99436.66;6245287;23;20209;-80
2023/01/07 14:03:43;;;;;;;2.70;2.50;;;;;;;11.34;100.00;99441.22;6219380;23;20184;-81
2023/01/07 14:06:19;;;;;;;3.03;2.83;;;;;;;11.17;100.00;99440.25;6245718;23;20220;-81
2023/01/07 14:08:58;;;;;;;3.90;3.60;;;;;;;11.10;100.00;99437.66;6246196;23;20569;-81
2023/01/07 14:11:28;;;;;;;3.60;3.30;;;;;;;11.10;100.00;99439.53;6246023;23;20208;-81
2023/01/07 14:13:57;;;;;;;2.57;2.37;;;;;;;10.99;100.00;99441.94;6246965;23;20204;-80
2023/01/07 14:16:30;;;;;;;2.67;2.47;;;;;;;10.84;100.00;99440.69;6219467;23;20204;-81
2023/01/07 14:19:02;;;;;;;3.27;2.60;;;;;;;10.80;100.00;99440.31;6246850;23;20232;-81
2023/01/07 14:22:01;;;;;;;2.07;1.87;;;;;;;10.71;100.00;99435.50;6248591;23;20280;-81
2023/01/07 14:24:36;;;;;;;2.70;2.40;;;;;;;10.64;100.00;99440.13;6249273;23;20287;-80
2023/01/07 14:27:21;;;;;;;3.07;2.10;;;;;;;10.55;100.00;99439.59;6222374;23;20287;-80
2023/01/07 14:29:49;;;;;;;2.50;2.30;;;;;;;10.43;100.00;99442.22;6249184;23;20223;-81
2023/01/07 14:32:28;;;;;;;2.60;2.40;;;;;;;10.29;100.00;99434.53;6222384;23;20232;-80
2023/01/07 14:35:04;;;;;;;2.50;2.30;;;;;;;10.21;100.00;99438.34;6221877;23;20212;-81
2023/01/07 14:37:36;;;;;;;2.47;2.27;;;;;;;10.15;100.00;99433.81;6223730;23;20232;-81
2023/01/07 14:40:33;;;;;;;1.70;1.60;;;;;;;10.07;100.00;99434.13;6222099;23;20283;-79
2023/01/07 14:43:01;;;;;;;1.60;1.50;;;;;;;10.01;100.00;99430.47;6249171;23;20212;-80
2023/01/07 14:45:48;;;;;;;1.60;1.50;;;;;;;9.87;100.00;99428.13;6222341;23;20208;-82
2023/01/07 14:48:14;;;;;;;1.93;1.73;;;;;;;9.75;100.00;99427.22;6222818;23;20287;-80
2023/01/07 14:50:55;;;;;;;2.17;2.00;;;;;;;9.70;100.00;99422.53;6248691;23;20243;-80
2023/01/07 14:53:56;;;;;;;2.00;1.67;;;;;;;9.65;100.00;99419.69;6221044;23;20204;-81
2023/01/07 14:56:31;;;;;;;1.73;1.63;;;;;;;9.69;100.00;99415.53;6248051;23;20200;-79
2023/01/07 14:59:51;;;;;;;1.60;1.50;;;;;;;9.44;100.00;99420.03;6249154;23;20549;-80